createdAt,value
2023-02-14T00:00:21.538Z,42.72
2023-02-14T00:02:49.396Z,44.35
2023-02-14T00:05:16.080Z,42.92
2023-02-14T00:07:42.655Z,49.93
2023-02-14T00:10:10.199Z,46.85
2023-02-14T00:12:36.730Z,45.53
2023-02-14T00:15:03.582Z,47.45
2023-02-14T00:17:30.168Z,46.10
2023-02-14T00:19:56.680Z,48.40
2023-02-14T00:22:23.213Z,48.88
2023-02-14T00:24:49.830Z,44.53
2023-02-14T00:27:16.511Z,44.50
2023-02-14T00:29:43.179Z,45.25
2023-02-14T00:32:10.139Z,46.57
2023-02-14T00:34:36.823Z,42.67
2023-02-14T00:37:06.423Z,48.33
2023-02-14T00:39:33.017Z,43.30
2023-02-14T00:41:59.526Z,44.92
2023-02-14T00:44:26.144Z,46.83
2023-02-14T00:46:52.686Z,47.13
2023-02-14T00:49:19.264Z,49.33
2023-02-14T00:51:45.934Z,50.83
2023-02-14T00:54:12.555Z,51.78
2023-02-14T00:56:39.211Z,46.93
2023-02-14T00:59:05.786Z,46.17
2023-02-14T01:01:32.378Z,50.05
2023-02-14T01:03:58.987Z,50.67
2023-02-14T01:06:25.703Z,45.70
2023-02-14T01:08:52.284Z,46.40
2023-02-14T01:11:21.427Z,50.72
2023-02-14T01:13:49.605Z,46.65
2023-02-14T01:16:20.035Z,45.90
2023-02-14T01:18:48.836Z,38.28
2023-02-14T01:21:21.386Z,43.23
2023-02-14T01:23:50.188Z,46.38
2023-02-14T01:26:17.606Z,47.65
2023-02-14T01:28:44.671Z,45.92
2023-02-14T01:31:15.074Z,45.90
2023-02-14T01:33:43.726Z,47.63
2023-02-14T01:36:19.296Z,54.53
2023-02-14T01:38:46.456Z,45.92
2023-02-14T01:41:13.313Z,48.13
2023-02-14T01:43:51.779Z,50.15
2023-02-14T01:46:18.552Z,48.77
2023-02-14T01:48:45.897Z,50.33
2023-02-14T01:51:14.293Z,48.35
2023-02-14T01:53:40.996Z,48.00
2023-02-14T01:56:13.313Z,52.35
2023-02-14T01:58:44.193Z,49.47
2023-02-14T02:01:14.735Z,53.30
2023-02-14T02:03:49.335Z,53.42
2023-02-14T02:06:21.977Z,52.30
2023-02-14T02:09:26.257Z,56.83
2023-02-14T02:11:52.928Z,54.90
2023-02-14T02:14:21.839Z,49.45
2023-02-14T02:17:23.679Z,53.13
2023-02-14T02:20:02.144Z,51.95
2023-02-14T02:22:42.310Z,55.33
2023-02-14T02:25:52.561Z,48.93
2023-02-14T02:28:24.981Z,53.67
2023-02-14T02:31:13.277Z,46.63
2023-02-14T02:34:03.850Z,50.08
2023-02-14T02:36:50.450Z,51.72
2023-02-14T02:39:49.176Z,48.93
2023-02-14T02:42:31.375Z,52.13
2023-02-14T02:45:12.248Z,51.10
2023-02-14T02:48:06.576Z,48.78
2023-02-14T02:50:41.503Z,47.03
2023-02-14T02:53:14.932Z,51.53
2023-02-14T02:55:44.552Z,49.17
2023-02-14T02:58:11.298Z,48.15
2023-02-14T03:00:37.950Z,51.60
2023-02-14T03:03:05.124Z,54.38
2023-02-14T03:05:34.225Z,55.93
2023-02-14T03:08:00.846Z,57.50
2023-02-14T03:10:32.104Z,52.72
2023-02-14T03:13:10.465Z,54.55
2023-02-14T03:15:49.276Z,57.25
2023-02-14T03:18:44.566Z,59.10
2023-02-14T03:21:14.070Z,63.35
2023-02-14T03:23:50.411Z,58.10
2023-02-14T03:26:20.494Z,56.65
2023-02-14T03:29:12.743Z,62.78
2023-02-14T03:32:03.878Z,55.53
2023-02-14T03:34:38.595Z,56.92
2023-02-14T03:37:17.125Z,62.35
2023-02-14T03:40:22.683Z,60.28
2023-02-14T03:42:54.509Z,55.65
2023-02-14T03:45:27.660Z,63.40
2023-02-14T03:47:58.612Z,60.72
2023-02-14T03:50:28.014Z,56.60
2023-02-14T03:52:58.104Z,57.83
2023-02-14T03:55:36.077Z,60.83
2023-02-14T03:58:20.241Z,57.77
2023-02-14T04:00:50.390Z,57.25
2023-02-14T04:03:19.472Z,58.70
2023-02-14T04:05:47.175Z,56.72
2023-02-14T04:08:26.396Z,61.10
2023-02-14T04:10:54.300Z,61.53
2023-02-14T04:13:21.356Z,61.10
2023-02-14T04:15:48.219Z,59.30
2023-02-14T04:18:15.032Z,58.92
2023-02-14T04:20:41.725Z,57.80
2023-02-14T04:23:08.262Z,56.90
2023-02-14T04:25:34.827Z,62.50
2023-02-14T04:28:01.439Z,61.55
2023-02-14T04:30:28.143Z,62.10
2023-02-14T04:32:54.728Z,57.85
2023-02-14T04:35:21.408Z,59.10
2023-02-14T04:37:47.958Z,62.50
2023-02-14T04:40:14.934Z,57.88
2023-02-14T04:42:41.484Z,60.70
2023-02-14T04:45:08.500Z,60.88
2023-02-14T04:47:35.036Z,62.30
2023-02-14T04:50:01.702Z,58.75
2023-02-14T04:52:28.328Z,56.58
2023-02-14T04:54:55.042Z,59.95
2023-02-14T04:57:21.805Z,63.72
2023-02-14T04:59:48.531Z,66.73
2023-02-14T05:02:15.447Z,66.53
2023-02-14T05:04:42.218Z,67.70
2023-02-14T05:07:08.891Z,67.82
2023-02-14T05:09:35.588Z,68.75
2023-02-14T05:12:02.178Z,66.70
2023-02-14T05:14:28.700Z,70.47
2023-02-14T05:16:55.338Z,61.58
2023-02-14T05:19:21.958Z,62.05
2023-02-14T05:21:48.637Z,67.78
2023-02-14T05:24:16.292Z,65.97
2023-02-14T05:26:43.048Z,61.03
2023-02-14T05:29:09.683Z,64.13
2023-02-14T05:31:36.471Z,63.35
2023-02-14T05:34:05.388Z,66.57
2023-02-14T05:36:31.931Z,67.13
2023-02-14T05:38:58.536Z,65.70
2023-02-14T05:41:25.237Z,69.85
2023-02-14T05:43:51.820Z,69.28
2023-02-14T05:46:18.475Z,67.63
2023-02-14T05:48:45.076Z,64.50
2023-02-14T05:51:11.705Z,62.65
2023-02-14T05:53:38.742Z,67.88
2023-02-14T05:56:05.917Z,62.90
2023-02-14T05:58:32.834Z,59.10
2023-02-14T06:01:00.014Z,56.30
2023-02-14T06:03:27.185Z,61.72
2023-02-14T06:05:53.777Z,59.70
2023-02-14T06:08:20.393Z,56.75
2023-02-14T06:10:46.952Z,56.20
2023-02-14T06:13:13.631Z,59.57
2023-02-14T06:15:40.219Z,60.10
2023-02-14T06:18:07.107Z,66.07
2023-02-14T06:20:34.013Z,72.75
2023-02-14T06:23:01.475Z,70.07
2023-02-14T06:25:28.196Z,68.80
2023-02-14T06:27:58.861Z,62.83
2023-02-14T06:30:26.710Z,63.15
2023-02-14T06:32:53.512Z,70.22
2023-02-14T06:35:23.137Z,75.68
2023-02-14T06:37:49.876Z,70.73
2023-02-14T06:40:26.800Z,68.15
2023-02-14T06:42:53.479Z,69.28
2023-02-14T06:45:24.755Z,77.47
2023-02-14T06:47:51.586Z,78.75
2023-02-14T06:50:18.540Z,60.13
2023-02-14T06:52:47.035Z,65.00
2023-02-14T06:55:13.773Z,59.13
2023-02-14T06:57:40.663Z,77.05
2023-02-14T07:00:08.516Z,69.05
2023-02-14T07:02:35.385Z,70.17
2023-02-14T07:05:02.028Z,65.65
2023-02-14T07:07:28.845Z,63.50
2023-02-14T07:09:55.866Z,67.53
2023-02-14T07:12:22.448Z,59.33
2023-02-14T07:14:49.045Z,56.30
2023-02-14T07:17:19.275Z,55.25
2023-02-14T07:19:45.871Z,57.97
2023-02-14T07:22:12.490Z,58.75
2023-02-14T07:24:39.144Z,61.75
2023-02-14T07:27:05.879Z,56.83
2023-02-14T07:32:13.951Z,58.47
2023-02-14T07:34:40.716Z,52.70
2023-02-14T07:37:07.487Z,63.55
2023-02-14T07:39:34.268Z,54.20
2023-02-14T07:42:00.941Z,52.85
2023-02-14T07:44:27.658Z,62.85
2023-02-14T07:46:56.351Z,54.05
2023-02-14T07:49:24.133Z,52.58
2023-02-14T07:51:50.741Z,55.30
2023-02-14T07:54:18.383Z,55.67
2023-02-14T07:56:46.160Z,56.50
2023-02-14T07:59:14.826Z,51.55
2023-02-14T08:01:44.416Z,52.70
2023-02-14T08:04:11.493Z,54.37
2023-02-14T08:06:39.205Z,54.10
2023-02-14T08:09:05.960Z,54.55
2023-02-14T08:11:33.638Z,53.85
2023-02-14T08:14:02.779Z,47.67
2023-02-14T08:16:33.303Z,51.83
2023-02-14T08:19:00.636Z,49.53
2023-02-14T08:21:27.856Z,58.20
2023-02-14T08:23:54.533Z,58.50
2023-02-14T08:26:21.426Z,61.88
2023-02-14T08:28:48.324Z,55.27
2023-02-14T08:31:34.695Z,61.00
2023-02-14T08:34:02.082Z,59.65
2023-02-14T08:36:28.724Z,61.28
2023-02-14T08:38:55.443Z,54.88
2023-02-14T08:41:22.087Z,60.97
2023-02-14T08:43:50.691Z,54.00
2023-02-14T08:46:17.468Z,49.40
2023-02-14T08:48:47.228Z,52.53
2023-02-14T08:51:14.976Z,52.28
2023-02-14T08:53:42.911Z,57.07
2023-02-14T08:56:12.033Z,55.38
2023-02-14T08:58:39.220Z,58.28
2023-02-14T09:01:15.355Z,51.88
2023-02-14T09:03:43.031Z,59.03
2023-02-14T09:06:19.176Z,50.77
2023-02-14T09:08:46.604Z,51.30
2023-02-14T09:11:22.393Z,48.83
2023-02-14T09:13:50.826Z,46.15
2023-02-14T09:16:18.627Z,51.65
2023-02-14T09:18:46.937Z,51.00
2023-02-14T09:21:19.060Z,59.00
2023-02-14T09:23:45.952Z,52.60
2023-02-14T09:26:14.330Z,51.35
2023-02-14T09:28:41.289Z,54.88
2023-02-14T09:31:10.260Z,55.80
2023-02-14T09:33:37.265Z,65.72
2023-02-14T09:36:06.631Z,63.75
2023-02-14T09:38:33.148Z,63.13
2023-02-14T09:41:00.107Z,54.05
2023-02-14T09:43:38.231Z,50.73
2023-02-14T09:46:11.534Z,49.55
2023-02-14T09:48:45.390Z,50.45
2023-02-14T09:51:16.277Z,57.90
2023-02-14T09:53:51.560Z,46.47
2023-02-14T09:56:51.888Z,47.03
2023-02-14T09:59:28.994Z,45.10
2023-02-14T10:02:07.956Z,48.83
2023-02-14T10:04:42.767Z,43.75
2023-02-14T10:07:27.342Z,51.45
2023-02-14T10:10:14.090Z,42.60
2023-02-14T10:12:50.554Z,44.47
2023-02-14T10:15:25.661Z,42.35
2023-02-14T10:18:01.028Z,49.95
2023-02-14T10:20:35.222Z,44.05
2023-02-14T10:23:06.820Z,37.57
2023-02-14T10:25:46.312Z,36.30
2023-02-14T10:28:16.833Z,35.20
2023-02-14T10:30:55.243Z,38.05
2023-02-14T10:33:27.956Z,32.38
2023-02-14T10:36:10.456Z,30.23
2023-02-14T10:39:00.889Z,29.58
2023-02-14T10:41:40.953Z,32.30
2023-02-14T10:44:26.434Z,32.33
2023-02-14T10:47:13.147Z,29.13
2023-02-14T10:49:54.855Z,29.53
2023-02-14T10:52:28.602Z,26.63
2023-02-14T10:55:12.421Z,31.25
2023-02-14T10:57:50.844Z,26.17
2023-02-14T11:00:24.209Z,27.42
2023-02-14T11:02:58.296Z,27.43
2023-02-14T11:05:49.056Z,25.45
2023-02-14T11:08:18.825Z,27.02
2023-02-14T11:10:48.573Z,30.52
2023-02-14T11:13:34.364Z,26.38
2023-02-14T11:16:20.489Z,24.03
2023-02-14T11:19:20.028Z,24.10
2023-02-14T11:21:49.679Z,16.63
2023-02-14T11:24:30.047Z,18.90
2023-02-14T11:27:00.826Z,17.35
2023-02-14T11:29:47.755Z,14.90
2023-02-14T11:32:27.156Z,18.67
2023-02-14T11:35:08.934Z,16.35
2023-02-14T11:37:44.506Z,18.67
2023-02-14T11:40:42.456Z,16.67
2023-02-14T11:43:15.099Z,15.07
2023-02-14T11:45:43.967Z,14.25
2023-02-14T11:48:37.691Z,14.85
2023-02-14T11:51:11.864Z,15.25
2023-02-14T11:53:56.346Z,16.83
2023-02-14T11:56:25.377Z,19.87
2023-02-14T13:38:06.975Z,16.53
2023-02-14T13:40:35.764Z,17.30
2023-02-14T13:43:03.012Z,19.42
2023-02-14T13:45:29.630Z,16.95
2023-02-14T13:48:09.235Z,17.42
2023-02-14T13:51:07.766Z,19.87
2023-02-14T13:53:43.292Z,22.58
2023-02-14T13:56:12.585Z,17.80
2023-02-14T13:58:55.970Z,17.67
2023-02-14T14:01:43.340Z,19.98
2023-02-14T14:04:34.291Z,18.50
2023-02-14T14:07:03.718Z,21.90
2023-02-14T14:09:42.252Z,14.23
2023-02-14T14:12:27.033Z,17.52
2023-02-14T14:15:05.782Z,17.23
2023-02-14T14:18:06.658Z,15.77
2023-02-14T14:27:46.071Z,17.90
2023-02-14T14:30:36.409Z,15.30
2023-02-14T14:33:26.088Z,18.17
2023-02-14T14:36:21.330Z,22.10
2023-02-14T14:38:50.527Z,15.65
2023-02-14T14:41:17.868Z,18.95
2023-02-14T14:44:05.698Z,17.98
2023-02-14T14:46:35.837Z,17.63
2023-02-14T14:49:02.949Z,21.10
2023-02-14T14:51:36.152Z,23.27
2023-02-14T14:54:22.127Z,18.98
2023-02-14T14:56:59.200Z,22.30
2023-02-14T14:59:30.325Z,21.80
2023-02-14T15:01:57.330Z,32.60
2023-02-14T15:04:28.789Z,24.98
2023-02-14T15:06:57.284Z,25.70
2023-02-14T15:09:39.302Z,25.67
2023-02-14T15:12:06.855Z,28.13
2023-02-14T15:14:43.820Z,29.00
2023-02-14T15:17:23.558Z,31.08
2023-02-14T15:19:56.888Z,33.38
2023-02-14T15:22:28.020Z,35.72
2023-02-14T15:24:54.866Z,26.77
2023-02-14T15:27:24.879Z,32.03
2023-02-14T15:30:06.183Z,34.22
2023-02-14T15:32:35.336Z,33.05
2023-02-14T15:35:04.501Z,28.00
2023-02-14T15:37:32.169Z,39.60
2023-02-14T15:39:59.582Z,29.98
2023-02-14T15:42:31.188Z,29.73
2023-02-14T15:45:36.711Z,30.88
2023-02-14T15:48:11.658Z,25.25
2023-02-14T15:50:46.828Z,28.60
2023-02-14T15:53:19.275Z,28.85
2023-02-14T15:55:50.354Z,33.50
2023-02-14T15:58:25.451Z,34.13
2023-02-14T16:00:53.500Z,36.50
2023-02-14T16:03:24.290Z,31.57
2023-02-14T16:05:51.747Z,42.08
2023-02-14T16:08:42.347Z,31.92
2023-02-14T16:11:26.794Z,30.52
2023-02-14T16:13:53.822Z,30.58
2023-02-14T16:16:20.443Z,33.43
2023-02-14T16:18:53.329Z,31.05
2023-02-14T16:21:25.982Z,28.52
2023-02-14T16:24:07.876Z,37.15
2023-02-14T16:26:35.940Z,39.13
2023-02-14T16:29:03.542Z,52.70
2023-02-14T16:31:30.829Z,53.50
2023-02-14T16:33:57.458Z,48.33
2023-02-14T16:36:32.960Z,47.42
2023-02-14T16:39:03.464Z,33.22
2023-02-14T16:41:31.439Z,36.23
2023-02-14T16:43:58.440Z,34.90
2023-02-14T16:46:32.995Z,36.72
2023-02-14T16:48:59.708Z,42.28
2023-02-14T16:51:29.538Z,40.80
2023-02-14T16:53:59.334Z,34.67
2023-02-14T16:56:44.746Z,35.28
2023-02-14T16:59:11.425Z,33.70
2023-02-14T17:01:38.326Z,34.20
2023-02-14T17:04:05.242Z,34.90
2023-02-14T17:06:33.861Z,36.73
2023-02-14T17:09:04.457Z,39.88
2023-02-14T17:11:32.508Z,41.33
2023-02-14T17:13:59.422Z,39.95
2023-02-14T17:16:26.064Z,37.55
2023-02-14T17:18:53.013Z,33.57
2023-02-14T17:21:23.909Z,35.40
2023-02-14T17:23:50.994Z,34.63
2023-02-14T17:26:17.542Z,32.13
2023-02-14T17:28:44.614Z,31.20
2023-02-14T17:31:11.283Z,35.63
2023-02-14T17:33:37.904Z,37.60
2023-02-14T17:36:06.462Z,32.88
2023-02-14T17:38:34.511Z,36.22
2023-02-14T17:41:11.053Z,34.78
2023-02-14T17:43:37.719Z,41.83
2023-02-14T17:46:05.202Z,35.70
2023-02-14T17:48:31.923Z,39.08
2023-02-14T17:51:04.270Z,34.80
2023-02-14T17:53:30.881Z,39.55
2023-02-14T17:55:57.553Z,41.80
2023-02-14T17:58:24.480Z,48.40
2023-02-14T18:00:51.170Z,56.80
2023-02-14T18:03:17.714Z,48.95
2023-02-14T18:05:44.328Z,50.13
2023-02-14T18:08:11.011Z,51.70
2023-02-14T18:10:37.844Z,62.97
2023-02-14T18:13:04.486Z,42.80
2023-02-14T18:15:31.051Z,57.28
2023-02-14T18:17:57.608Z,70.20
2023-02-14T18:20:24.220Z,75.70
2023-02-14T18:22:50.755Z,72.60
2023-02-14T18:25:17.484Z,70.18
2023-02-14T18:27:44.018Z,75.03
2023-02-14T18:30:11.005Z,70.55
2023-02-14T18:32:37.623Z,63.03
2023-02-14T18:35:04.396Z,61.10
2023-02-14T18:37:31.054Z,60.75
2023-02-14T18:39:57.688Z,58.83
2023-02-14T18:42:24.307Z,81.78
2023-02-14T18:44:51.058Z,134.07
2023-02-14T18:47:17.679Z,134.30
2023-02-14T18:49:44.268Z,106.03
2023-02-14T18:52:10.928Z,99.95
2023-02-14T18:54:37.488Z,104.45
2023-02-14T18:57:04.118Z,97.87
2023-02-14T18:59:30.687Z,101.97
2023-02-14T19:01:57.268Z,93.93
2023-02-14T19:04:23.898Z,94.35
2023-02-14T19:06:50.810Z,92.32
2023-02-14T19:09:17.458Z,89.80
2023-02-14T19:11:44.474Z,90.82
2023-02-14T19:14:11.303Z,91.25
2023-02-14T19:16:42.688Z,86.05
2023-02-14T19:19:10.318Z,82.18
2023-02-14T19:21:36.960Z,85.43
2023-02-14T19:24:05.743Z,85.30
2023-02-14T19:26:34.656Z,78.57
2023-02-14T19:29:04.816Z,85.80
2023-02-14T19:31:31.720Z,73.13
2023-02-14T19:33:58.544Z,86.77
2023-02-14T19:36:25.081Z,83.30
2023-02-14T19:38:52.873Z,86.28
2023-02-14T19:41:28.741Z,88.68
2023-02-14T19:43:57.149Z,76.82
2023-02-14T19:46:25.096Z,84.13
2023-02-14T19:48:52.299Z,79.43
2023-02-14T19:51:27.010Z,69.70
2023-02-14T19:53:55.162Z,85.45
2023-02-14T19:56:27.283Z,69.13
2023-02-14T19:58:54.621Z,75.50
2023-02-14T20:01:30.549Z,67.15
2023-02-14T20:03:57.906Z,69.32
2023-02-14T20:06:26.855Z,76.97
2023-02-14T20:08:53.599Z,79.43
2023-02-14T20:11:29.043Z,66.40
2023-02-14T20:13:55.739Z,66.57
2023-02-14T20:16:27.095Z,74.30
2023-02-14T20:18:57.021Z,71.53
2023-02-14T20:21:25.339Z,70.15
2023-02-14T20:23:52.496Z,68.90
2023-02-14T20:26:19.602Z,63.20
2023-02-14T20:28:47.283Z,93.88
2023-02-14T20:31:15.879Z,89.13
2023-02-14T20:33:42.587Z,83.13
2023-02-14T20:36:09.213Z,76.90
2023-02-14T20:38:35.808Z,72.13
2023-02-14T20:41:07.185Z,72.88
2023-02-14T20:43:34.418Z,77.30
2023-02-14T20:46:01.998Z,68.60
2023-02-14T20:48:29.853Z,72.90
2023-02-14T20:50:57.172Z,69.13
2023-02-14T20:53:24.679Z,55.47
2023-02-14T20:55:52.653Z,63.03
2023-02-14T20:58:20.208Z,62.22
2023-02-14T21:00:46.792Z,60.73
2023-02-14T21:03:13.375Z,62.88
2023-02-14T21:05:40.052Z,68.35
2023-02-14T21:08:06.674Z,70.18
2023-02-14T21:10:33.294Z,70.03
2023-02-14T21:12:59.928Z,67.67
2023-02-14T21:15:26.584Z,77.40
2023-02-14T21:17:53.208Z,66.63
2023-02-14T21:20:19.799Z,68.28
2023-02-14T21:22:46.398Z,70.25
2023-02-14T21:25:13.025Z,74.30
2023-02-14T21:27:39.676Z,70.38
2023-02-14T21:30:07.110Z,68.38
2023-02-14T21:32:33.758Z,62.78
2023-02-14T21:35:00.386Z,55.28
2023-02-14T21:37:27.062Z,69.00
2023-02-14T21:39:53.605Z,59.05
2023-02-14T21:42:20.195Z,67.55
2023-02-14T21:44:46.965Z,65.85
2023-02-14T21:47:13.585Z,66.00
2023-02-14T21:49:40.163Z,63.50
2023-02-14T21:52:06.704Z,61.22
2023-02-14T21:54:33.212Z,60.47
2023-02-14T21:56:59.850Z,56.45
2023-02-14T21:59:26.395Z,62.75
2023-02-14T22:01:53.129Z,66.00
2023-02-14T22:04:19.858Z,56.00
2023-02-14T22:06:46.453Z,46.90
2023-02-14T22:09:14.205Z,38.63
2023-02-14T22:11:40.929Z,37.30
2023-02-14T22:14:07.556Z,31.90
2023-02-14T22:16:34.235Z,28.83
2023-02-14T22:19:00.949Z,26.55
2023-02-14T22:21:27.975Z,26.70
2023-02-14T22:23:55.364Z,25.60
2023-02-14T22:26:31.448Z,26.07
2023-02-14T22:29:00.097Z,24.85
2023-02-14T22:31:32.535Z,23.88
2023-02-14T22:33:59.256Z,22.08
2023-02-14T22:36:26.001Z,22.55
2023-02-14T22:38:52.606Z,22.50
2023-02-14T22:41:22.461Z,24.08
2023-02-14T22:43:49.051Z,24.55
2023-02-14T22:46:17.976Z,27.17
2023-02-14T22:48:44.944Z,23.75
2023-02-14T22:51:30.295Z,24.00
2023-02-14T22:54:09.404Z,24.88
2023-02-14T22:56:38.411Z,23.38
2023-02-14T22:59:17.422Z,22.70
2023-02-14T23:01:44.394Z,26.52
2023-02-14T23:04:11.510Z,20.43
2023-02-14T23:06:38.390Z,26.08
2023-02-14T23:09:07.816Z,23.08
2023-02-14T23:11:36.946Z,24.98
2023-02-14T23:14:04.520Z,21.83
2023-02-14T23:16:31.802Z,22.87
2023-02-14T23:18:58.654Z,22.33
2023-02-14T23:21:25.228Z,24.13
2023-02-14T23:23:51.895Z,23.20
2023-02-14T23:26:21.697Z,24.30
2023-02-14T23:28:48.326Z,22.23
2023-02-14T23:31:14.912Z,24.70
2023-02-14T23:33:41.518Z,24.95
2023-02-14T23:36:08.379Z,24.48
2023-02-14T23:38:34.974Z,25.00
2023-02-14T23:41:09.436Z,24.77
2023-02-14T23:43:35.959Z,25.25
2023-02-14T23:46:02.903Z,22.50
2023-02-14T23:48:29.865Z,25.80
2023-02-14T23:50:59.606Z,25.73
2023-02-14T23:53:26.162Z,28.17
2023-02-14T23:55:52.751Z,25.00
2023-02-14T23:58:19.353Z,26.80
